GOTK

Kédougou Airport

Kédougou, Senegal
METAR GOTK 201800Z 36006KT CAVOK 39/14 Q1007
Observed Flight Rules
Apr-20 @ 18:00 UTC (40 minutes ago) Visual Flight Rules
Wind Visibility Clouds
360° at 6 knots 10,000+ meters
  • Clear skies
Temperatures Readings
Current 39°C / 102°F
Dewpoint 14°C / 57°F
Humidity 23%
Altimeter 29.73" Hg
Pressure 1007 hPa
Elevation 167
METAR GOTK 201800Z 36006KT CAVOK 39/14 Q1007
Observed Flight Rules
Apr-20 @ 18:00 UTC
(40 minutes ago)
VFR
Wind Visibility
360° at 6 knots 10,000+ meters
Clouds
  • Clear skies
Temperature Dewpoint
39°C / 102°F 14°C / 57°F
Humidity Altimeter Pressure
23% 29.73" Hg 1007 hPa